createdAt,value
2023-03-06T00:00:44.144Z,4.89
2023-03-06T00:01:44.115Z,4.94
2023-03-06T00:02:44.148Z,5.00
2023-03-06T00:03:44.174Z,5.05
2023-03-06T00:04:44.200Z,5.09
2023-03-06T00:06:44.113Z,5.10
2023-03-06T00:07:44.120Z,5.12
2023-03-06T00:08:44.113Z,5.18
2023-03-06T00:09:44.121Z,5.24
2023-03-06T00:10:44.131Z,5.26
2023-03-06T00:12:44.173Z,5.27
2023-03-06T00:13:44.137Z,5.25
2023-03-06T00:15:44.193Z,5.23
2023-03-06T00:18:44.158Z,5.29
2023-03-06T00:19:44.197Z,5.36
2023-03-06T00:20:44.170Z,5.41
2023-03-06T00:21:44.206Z,5.44
2023-03-06T00:22:44.241Z,5.41
2023-03-06T00:23:44.201Z,5.38
2023-03-06T00:24:44.178Z,5.35
2023-03-06T00:25:44.383Z,5.37
2023-03-06T00:26:44.173Z,5.40
2023-03-06T00:27:44.163Z,5.42
2023-03-06T00:28:44.209Z,5.49
2023-03-06T00:29:44.212Z,5.54
2023-03-06T00:30:44.265Z,5.57
2023-03-06T00:31:46.861Z,5.58
2023-03-06T00:32:44.211Z,5.62
2023-03-06T00:33:44.236Z,5.65
2023-03-06T00:34:44.228Z,5.67
2023-03-06T00:35:44.213Z,5.69
2023-03-06T00:36:44.233Z,5.66
2023-03-06T00:37:44.233Z,5.69
2023-03-06T00:38:44.193Z,5.70
2023-03-06T00:39:44.206Z,5.73
2023-03-06T00:40:44.218Z,5.74
2023-03-06T00:41:46.861Z,5.75
2023-03-06T00:42:44.253Z,5.79
2023-03-06T00:43:44.247Z,5.80
2023-03-06T00:44:44.239Z,5.84
2023-03-06T00:45:44.288Z,5.85
2023-03-06T00:47:44.260Z,5.84
2023-03-06T00:48:44.247Z,5.81
2023-03-06T00:49:44.267Z,5.80
2023-03-06T00:51:44.309Z,5.78
2023-03-06T00:52:44.267Z,5.80
2023-03-06T00:53:44.267Z,5.79
2023-03-06T00:54:44.268Z,5.76
2023-03-06T00:55:44.277Z,5.67
2023-03-06T00:56:44.274Z,5.61
2023-03-06T00:57:44.243Z,5.63
2023-03-06T00:58:44.295Z,5.64
2023-03-06T00:59:44.279Z,5.66
2023-03-06T01:01:44.287Z,5.69
2023-03-06T01:02:44.265Z,5.70
2023-03-06T01:04:44.295Z,5.73
2023-03-06T01:05:44.315Z,5.77
2023-03-06T01:06:44.361Z,5.78
2023-03-06T01:07:44.304Z,5.77
2023-03-06T01:10:44.263Z,5.74
2023-03-06T01:11:44.302Z,5.71
2023-03-06T01:13:44.283Z,5.76
2023-03-06T01:14:44.276Z,5.81
2023-03-06T01:15:44.306Z,5.87
2023-03-06T01:16:44.379Z,5.91
2023-03-06T01:17:44.280Z,5.97
2023-03-06T01:18:44.321Z,6.00
2023-03-06T01:19:44.379Z,6.03
2023-03-06T01:20:44.302Z,6.05
2023-03-06T01:21:44.294Z,6.03
2023-03-06T01:22:44.303Z,6.02
2023-03-06T01:23:44.303Z,5.98
2023-03-06T01:24:44.344Z,5.99
2023-03-06T01:25:44.320Z,5.98
2023-03-06T01:27:44.315Z,5.96
2023-03-06T01:28:44.358Z,5.94
2023-03-06T01:29:44.298Z,5.93
2023-03-06T01:30:44.348Z,5.94
2023-03-06T01:32:44.400Z,5.92
2023-03-06T01:33:44.362Z,5.91
2023-03-06T01:34:44.321Z,5.92
2023-03-06T01:35:44.390Z,5.91
2023-03-06T01:36:44.357Z,5.89
2023-03-06T01:39:44.386Z,5.88
2023-03-06T01:41:44.356Z,5.86
2023-03-06T01:42:46.411Z,5.87
2023-03-06T01:43:44.380Z,5.88
2023-03-06T01:44:44.389Z,5.87
2023-03-06T01:45:47.389Z,5.88
2023-03-06T01:47:44.348Z,5.87
2023-03-06T01:48:44.368Z,5.78
2023-03-06T01:49:44.364Z,5.63
2023-03-06T01:50:44.397Z,5.54
2023-03-06T01:51:44.401Z,5.44
2023-03-06T01:52:44.416Z,5.39
2023-03-06T01:53:44.392Z,5.40
2023-03-06T01:54:44.419Z,5.41
2023-03-06T01:56:44.432Z,5.40
2023-03-06T01:58:44.424Z,5.39
2023-03-06T01:59:44.443Z,5.34
2023-03-06T02:00:44.593Z,5.24
2023-03-06T02:01:44.424Z,5.21
2023-03-06T02:02:44.442Z,5.22
2023-03-06T02:03:44.409Z,5.20
2023-03-06T02:04:44.441Z,5.16
2023-03-06T02:05:44.413Z,5.15
2023-03-06T02:06:44.408Z,5.16
2023-03-06T02:07:44.422Z,5.18
2023-03-06T02:08:44.408Z,5.19
2023-03-06T02:10:44.504Z,5.18
2023-03-06T02:11:44.532Z,5.19
2023-03-06T02:12:44.483Z,5.22
2023-03-06T02:13:44.426Z,5.25
2023-03-06T02:14:44.434Z,5.29
2023-03-06T02:15:44.466Z,5.30
2023-03-06T02:16:44.562Z,5.28
2023-03-06T02:18:44.432Z,5.27
2023-03-06T02:20:44.559Z,5.26
2023-03-06T02:21:44.493Z,5.25
2023-03-06T02:22:47.565Z,5.23
2023-03-06T02:23:44.477Z,5.22
2023-03-06T02:24:44.494Z,5.21
2023-03-06T02:25:44.451Z,5.20
2023-03-06T02:26:44.737Z,5.17
2023-03-06T02:27:44.541Z,5.16
2023-03-06T02:28:44.500Z,5.15
2023-03-06T02:29:44.462Z,5.12
2023-03-06T02:31:44.490Z,5.06
2023-03-06T02:32:44.471Z,5.04
2023-03-06T02:33:44.552Z,5.02
2023-03-06T02:34:44.557Z,4.94
2023-03-06T02:36:44.485Z,4.92
2023-03-06T02:37:44.490Z,4.90
2023-03-06T02:38:44.490Z,4.89
2023-03-06T02:40:44.530Z,4.90
2023-03-06T02:41:44.568Z,4.89
2023-03-06T02:42:44.500Z,4.88
2023-03-06T02:45:44.649Z,4.90
2023-03-06T02:47:44.562Z,4.88
2023-03-06T02:48:44.545Z,4.89
2023-03-06T02:49:44.538Z,4.90
2023-03-06T02:51:44.549Z,4.92
2023-03-06T02:53:44.506Z,4.94
2023-03-06T02:54:44.535Z,4.93
2023-03-06T02:55:44.565Z,4.90
2023-03-06T02:56:44.563Z,4.89
2023-03-06T02:58:44.580Z,4.90
2023-03-06T02:59:47.860Z,4.92
2023-03-06T03:01:44.580Z,4.90
2023-03-06T03:04:44.692Z,4.88
2023-03-06T03:05:44.585Z,4.85
2023-03-06T03:06:44.574Z,4.82
2023-03-06T03:07:44.581Z,4.79
2023-03-06T03:08:44.586Z,4.78
2023-03-06T03:10:44.618Z,4.77
2023-03-06T03:11:44.617Z,4.74
2023-03-06T03:12:44.607Z,4.73
2023-03-06T03:14:44.576Z,4.71
2023-03-06T03:15:44.623Z,4.68
2023-03-06T03:16:44.600Z,4.64
2023-03-06T03:17:44.616Z,4.61
2023-03-06T03:18:44.656Z,4.57
2023-03-06T03:19:44.613Z,4.47
2023-03-06T03:20:44.610Z,4.41
2023-03-06T03:21:44.606Z,4.40
2023-03-06T03:22:44.621Z,4.39
2023-03-06T03:23:44.602Z,4.38
2023-03-06T03:25:44.614Z,4.41
2023-03-06T03:26:44.602Z,4.44
2023-03-06T03:27:44.605Z,4.46
2023-03-06T03:28:44.628Z,4.48
2023-03-06T03:29:44.661Z,4.51
2023-03-06T03:30:44.686Z,4.53
2023-03-06T03:32:44.684Z,4.46
2023-03-06T03:33:44.651Z,4.42
2023-03-06T03:34:44.630Z,4.41
2023-03-06T03:35:44.689Z,4.42
2023-03-06T03:36:48.067Z,4.41
2023-03-06T03:37:44.648Z,4.44
2023-03-06T03:38:44.697Z,4.39
2023-03-06T03:39:44.695Z,4.38
2023-03-06T03:41:44.671Z,4.37
2023-03-06T03:42:44.663Z,4.43
2023-03-06T03:43:44.675Z,4.48
2023-03-06T03:44:44.633Z,4.53
2023-03-06T03:45:44.656Z,4.55
2023-03-06T03:47:44.654Z,4.56
2023-03-06T03:48:44.720Z,4.55
2023-03-06T03:49:44.684Z,4.56
2023-03-06T03:51:44.696Z,4.54
2023-03-06T03:52:44.697Z,4.50
2023-03-06T03:54:44.718Z,4.49
2023-03-06T03:55:44.716Z,4.48
2023-03-06T03:57:44.730Z,4.47
2023-03-06T03:58:44.675Z,4.46
2023-03-06T03:59:44.708Z,4.47
2023-03-06T04:01:44.796Z,4.45
2023-03-06T04:02:44.733Z,4.41
2023-03-06T04:03:44.718Z,4.40
2023-03-06T04:05:44.733Z,4.41
2023-03-06T04:06:44.764Z,4.40
2023-03-06T04:07:44.724Z,4.39
2023-03-06T04:08:44.725Z,4.38
2023-03-06T04:09:44.743Z,4.36
2023-03-06T04:10:44.744Z,4.32
2023-03-06T04:11:44.740Z,4.30
2023-03-06T04:12:44.745Z,4.28
2023-03-06T04:13:48.350Z,4.25
2023-03-06T04:14:44.753Z,4.26
2023-03-06T04:15:44.727Z,4.29
2023-03-06T04:16:44.750Z,4.33
2023-03-06T04:17:44.732Z,4.36
2023-03-06T04:19:44.779Z,4.37
2023-03-06T04:21:44.723Z,4.36
2023-03-06T04:22:44.767Z,4.38
2023-03-06T04:24:44.798Z,4.40
2023-03-06T04:25:44.729Z,4.42
2023-03-06T04:27:44.774Z,4.45
2023-03-06T04:28:44.787Z,4.47
2023-03-06T04:29:44.788Z,4.48
2023-03-06T04:30:44.764Z,4.49
2023-03-06T04:31:44.822Z,4.52
2023-03-06T04:32:44.810Z,4.53
2023-03-06T04:33:44.789Z,4.52
2023-03-06T04:35:44.870Z,4.51
2023-03-06T04:37:44.783Z,4.50
2023-03-06T04:38:44.803Z,4.52
2023-03-06T04:41:44.825Z,4.38
2023-03-06T04:42:44.784Z,4.30
2023-03-06T04:43:44.832Z,4.27
2023-03-06T04:44:44.816Z,4.23
2023-03-06T04:45:44.865Z,4.20
2023-03-06T04:46:44.839Z,4.16
2023-03-06T04:47:44.821Z,4.01
2023-03-06T04:48:44.824Z,3.96
2023-03-06T04:49:44.841Z,3.98
2023-03-06T04:50:48.601Z,4.02
2023-03-06T04:51:44.830Z,4.06
2023-03-06T04:52:44.842Z,4.12
2023-03-06T04:53:44.854Z,4.16
2023-03-06T04:54:44.829Z,4.21
2023-03-06T04:55:44.828Z,4.22
2023-03-06T04:56:44.799Z,4.24
2023-03-06T04:58:44.831Z,4.28
2023-03-06T04:59:44.840Z,4.29
2023-03-06T05:01:44.832Z,4.32
2023-03-06T05:03:44.864Z,4.33
2023-03-06T05:04:44.818Z,4.31
2023-03-06T05:05:44.829Z,4.26
2023-03-06T05:06:45.028Z,4.24
2023-03-06T05:07:44.871Z,4.26
2023-03-06T05:08:44.831Z,4.27
2023-03-06T05:09:44.844Z,4.18
2023-03-06T05:10:44.880Z,4.14
2023-03-06T05:11:44.849Z,4.15
2023-03-06T05:12:44.857Z,4.16
2023-03-06T05:13:44.840Z,4.12
2023-03-06T05:14:47.679Z,4.16
2023-03-06T05:15:44.836Z,4.18
2023-03-06T05:16:44.945Z,4.20
2023-03-06T05:17:44.893Z,4.22
2023-03-06T05:18:44.906Z,4.27
2023-03-06T05:19:44.896Z,4.33
2023-03-06T05:20:44.902Z,4.38
2023-03-06T05:21:44.858Z,4.42
2023-03-06T05:22:44.933Z,4.46
2023-03-06T05:23:44.868Z,4.50
2023-03-06T05:24:44.913Z,4.53
2023-03-06T05:25:44.916Z,4.55
2023-03-06T05:26:44.869Z,4.58
2023-03-06T05:27:48.868Z,4.62
2023-03-06T05:28:44.922Z,4.64
2023-03-06T05:29:44.915Z,4.68
2023-03-06T05:30:44.917Z,4.71
2023-03-06T05:31:44.921Z,4.73
2023-03-06T05:32:44.894Z,4.75
2023-03-06T05:33:44.897Z,4.76
2023-03-06T05:34:44.936Z,4.73
2023-03-06T05:36:44.938Z,4.71
2023-03-06T05:37:44.957Z,4.67
2023-03-06T05:38:44.956Z,4.65
2023-03-06T05:39:44.938Z,4.64
2023-03-06T05:40:44.955Z,4.66
2023-03-06T05:42:44.975Z,4.69
2023-03-06T05:43:45.008Z,4.68
2023-03-06T05:44:44.967Z,4.65
2023-03-06T05:45:44.971Z,4.63
2023-03-06T05:46:44.966Z,4.61
2023-03-06T05:47:44.955Z,4.64
2023-03-06T05:48:46.753Z,4.66
2023-03-06T05:50:44.976Z,4.68
2023-03-06T05:51:44.982Z,4.72
2023-03-06T05:52:44.988Z,4.74
2023-03-06T05:53:44.977Z,4.77
2023-03-06T05:55:44.942Z,4.78
2023-03-06T05:56:44.983Z,4.76
2023-03-06T05:57:45.013Z,4.77
2023-03-06T05:58:44.972Z,4.76
2023-03-06T05:59:46.417Z,4.78
2023-03-06T06:00:44.968Z,4.76
2023-03-06T06:01:44.988Z,4.79
2023-03-06T06:02:45.037Z,4.80
2023-03-06T06:03:45.092Z,4.81
2023-03-06T06:04:49.293Z,4.80
2023-03-06T06:05:44.992Z,4.79
2023-03-06T06:06:45.015Z,4.80
2023-03-06T06:08:45.015Z,4.81
2023-03-06T06:10:44.986Z,4.82
2023-03-06T06:11:45.023Z,4.81
2023-03-06T06:14:45.036Z,4.78
2023-03-06T06:15:45.081Z,4.79
2023-03-06T06:16:45.022Z,4.81
2023-03-06T06:17:45.031Z,4.82
2023-03-06T06:18:45.030Z,4.81
2023-03-06T06:22:45.016Z,4.78
2023-03-06T06:23:45.018Z,4.79
2023-03-06T06:24:45.044Z,4.75
2023-03-06T06:26:45.117Z,4.78
2023-03-06T06:28:45.064Z,4.81
2023-03-06T06:29:45.027Z,4.83
2023-03-06T06:30:45.261Z,4.84
2023-03-06T06:31:45.120Z,4.86
2023-03-06T06:32:45.076Z,4.85
2023-03-06T06:33:45.067Z,4.78
2023-03-06T06:34:45.084Z,4.74
2023-03-06T06:35:45.143Z,4.69
2023-03-06T06:36:45.101Z,4.67
2023-03-06T06:37:45.105Z,4.66
2023-03-06T06:39:45.039Z,4.68
2023-03-06T06:40:54.049Z,4.67
2023-03-06T06:42:00.057Z,4.70
2023-03-06T06:42:45.090Z,4.71
2023-03-06T06:43:45.092Z,4.73
2023-03-06T06:44:45.108Z,4.76
2023-03-06T06:45:45.061Z,4.78
2023-03-06T06:47:45.226Z,4.87
2023-03-06T06:48:45.082Z,4.89
2023-03-06T06:49:45.079Z,4.87
2023-03-06T06:50:45.081Z,4.84
2023-03-06T06:51:45.124Z,4.85
2023-03-06T06:52:45.115Z,4.84
2023-03-06T06:53:45.161Z,4.85
2023-03-06T06:54:45.097Z,4.88
2023-03-06T06:55:45.124Z,4.91
2023-03-06T06:56:45.144Z,4.92
2023-03-06T06:57:45.162Z,4.91
2023-03-06T06:58:45.084Z,4.85
2023-03-06T06:59:45.124Z,4.64
2023-03-06T07:00:45.134Z,4.57
2023-03-06T07:01:45.214Z,4.53
2023-03-06T07:02:45.119Z,4.54
2023-03-06T07:03:45.129Z,4.60
2023-03-06T07:05:02.100Z,4.67
2023-03-06T07:05:45.957Z,4.75
2023-03-06T07:06:45.116Z,4.83
2023-03-06T07:07:45.106Z,4.92
2023-03-06T07:08:45.165Z,4.94
2023-03-06T07:09:45.168Z,4.92
2023-03-06T07:11:46.006Z,4.94
2023-03-06T07:12:45.168Z,4.93
2023-03-06T07:14:45.215Z,4.95
2023-03-06T07:15:45.170Z,4.97
2023-03-06T07:17:45.406Z,5.01
2023-03-06T07:18:49.893Z,5.02
2023-03-06T07:19:45.192Z,5.03
2023-03-06T07:20:45.157Z,5.05
2023-03-06T07:21:45.154Z,5.04
2023-03-06T07:22:51.320Z,5.01
2023-03-06T07:23:45.236Z,4.86
2023-03-06T07:24:45.229Z,4.77
2023-03-06T07:25:45.201Z,4.58
2023-03-06T07:26:45.205Z,4.51
2023-03-06T07:27:51.048Z,4.47
2023-03-06T07:28:52.348Z,4.33
2023-03-06T07:29:45.204Z,4.34
2023-03-06T07:30:45.216Z,4.39
2023-03-06T07:31:45.242Z,4.30
2023-03-06T07:32:45.216Z,4.22
2023-03-06T07:33:45.235Z,4.23
2023-03-06T07:34:45.223Z,4.14
2023-03-06T07:35:45.386Z,4.18
2023-03-06T07:36:45.226Z,4.24
2023-03-06T07:37:45.243Z,4.34
2023-03-06T07:38:45.218Z,4.23
2023-03-06T07:39:45.178Z,4.16
2023-03-06T07:40:45.279Z,4.11
2023-03-06T07:41:45.238Z,4.13
2023-03-06T07:42:45.230Z,4.14
2023-03-06T07:43:45.237Z,4.18
2023-03-06T07:44:45.253Z,4.21
2023-03-06T07:45:45.254Z,4.14
2023-03-06T07:46:45.283Z,4.15
2023-03-06T07:47:45.273Z,4.22
2023-03-06T07:48:45.233Z,4.26
2023-03-06T07:49:45.233Z,4.24
2023-03-06T07:50:45.266Z,4.30
2023-03-06T07:51:45.274Z,4.17
2023-03-06T07:52:45.274Z,4.28
2023-03-06T07:53:45.274Z,4.40
2023-03-06T07:54:45.271Z,4.54
2023-03-06T07:55:50.188Z,4.69
2023-03-06T07:56:45.234Z,4.80
2023-03-06T07:57:45.294Z,4.78
2023-03-06T07:58:45.320Z,4.71
2023-03-06T07:59:45.262Z,4.73
2023-03-06T08:00:45.292Z,4.77
2023-03-06T08:01:45.265Z,4.76
2023-03-06T08:02:45.320Z,4.84
2023-03-06T08:03:45.356Z,4.94
2023-03-06T08:04:45.313Z,5.03
2023-03-06T08:05:45.355Z,5.14
2023-03-06T08:06:45.270Z,5.25
2023-03-06T08:07:45.288Z,5.34
2023-03-06T08:08:45.313Z,5.44
2023-03-06T08:09:45.467Z,5.51
2023-03-06T08:10:45.313Z,5.59
2023-03-06T08:11:45.343Z,5.64
2023-03-06T08:12:45.280Z,5.71
2023-03-06T08:13:45.326Z,5.79
2023-03-06T08:14:45.323Z,5.86
2023-03-06T08:15:45.310Z,5.90
2023-03-06T08:16:45.298Z,5.95
2023-03-06T08:17:45.279Z,5.98
2023-03-06T08:18:46.569Z,6.03
2023-03-06T08:19:45.341Z,6.06
2023-03-06T08:20:45.361Z,6.08
2023-03-06T08:21:45.370Z,6.09
2023-03-06T08:22:45.335Z,6.10
2023-03-06T08:23:45.339Z,6.11
2023-03-06T08:24:45.358Z,6.14
2023-03-06T08:25:45.361Z,6.18
2023-03-06T08:26:45.343Z,6.21
2023-03-06T08:27:45.320Z,6.25
2023-03-06T08:28:45.372Z,6.30
2023-03-06T08:29:45.415Z,6.33
2023-03-06T08:30:45.360Z,6.38
2023-03-06T08:31:45.445Z,6.42
2023-03-06T08:32:50.387Z,6.44
2023-03-06T08:34:46.113Z,6.46
2023-03-06T08:35:45.379Z,6.47
2023-03-06T08:37:45.882Z,6.46
2023-03-06T08:38:45.394Z,6.48
2023-03-06T08:39:45.355Z,6.47
2023-03-06T08:41:45.409Z,6.48
2023-03-06T08:42:45.430Z,6.51
2023-03-06T08:43:45.437Z,6.54
2023-03-06T08:44:45.382Z,6.55
2023-03-06T08:45:45.426Z,6.57
2023-03-06T08:47:45.395Z,6.59
2023-03-06T08:48:45.365Z,6.60
2023-03-06T08:49:45.804Z,6.58
2023-03-06T08:50:45.396Z,6.59
2023-03-06T08:51:45.356Z,6.57
2023-03-06T08:52:45.369Z,6.56
2023-03-06T08:55:45.496Z,6.57
2023-03-06T08:56:45.385Z,6.56
2023-03-06T08:58:45.419Z,6.59
2023-03-06T08:59:45.386Z,6.63
2023-03-06T09:00:45.457Z,6.70
2023-03-06T09:01:45.588Z,6.74
2023-03-06T09:02:45.405Z,6.77
2023-03-06T09:03:45.473Z,6.80
2023-03-06T09:04:45.396Z,6.82
2023-03-06T09:05:45.391Z,6.83
2023-03-06T09:06:45.732Z,6.79
2023-03-06T09:07:45.424Z,6.77
2023-03-06T09:08:45.443Z,6.73
2023-03-06T09:09:45.425Z,6.75
2023-03-06T09:10:45.469Z,6.78
2023-03-06T09:11:45.444Z,6.79
2023-03-06T09:13:45.445Z,6.81
2023-03-06T09:14:45.427Z,6.84
2023-03-06T09:15:45.438Z,6.90
2023-03-06T09:16:45.502Z,6.95
2023-03-06T09:17:45.504Z,6.97
2023-03-06T09:18:45.471Z,6.99
2023-03-06T09:19:45.579Z,7.03
2023-03-06T09:20:45.458Z,7.04
2023-03-06T09:21:45.485Z,7.08
2023-03-06T09:22:45.484Z,7.11
2023-03-06T09:23:45.437Z,7.14
2023-03-06T09:24:45.438Z,7.17
2023-03-06T09:25:45.467Z,7.21
2023-03-06T09:26:47.583Z,7.24
2023-03-06T09:27:45.467Z,7.25
2023-03-06T09:28:45.457Z,7.27
2023-03-06T09:29:46.653Z,7.28
2023-03-06T09:31:45.617Z,7.26
2023-03-06T09:32:45.478Z,7.24
2023-03-06T09:33:45.500Z,7.25
2023-03-06T09:34:45.507Z,7.28
2023-03-06T09:35:45.527Z,7.31
2023-03-06T09:36:56.568Z,7.37
2023-03-06T09:37:45.509Z,7.40
2023-03-06T09:38:45.478Z,7.45
2023-03-06T09:39:45.534Z,7.48
2023-03-06T09:40:45.481Z,7.51
2023-03-06T09:41:45.474Z,7.53
2023-03-06T09:42:45.520Z,7.57
2023-03-06T09:43:46.041Z,7.60
2023-03-06T09:44:45.506Z,7.64
2023-03-06T09:45:45.595Z,7.71
2023-03-06T09:46:45.559Z,7.77
2023-03-06T09:47:45.546Z,7.83
2023-03-06T09:48:45.505Z,7.88
2023-03-06T09:49:45.578Z,7.83
2023-03-06T09:50:45.517Z,7.82
2023-03-06T09:51:45.515Z,7.83
2023-03-06T09:52:45.535Z,7.88
2023-03-06T09:53:45.513Z,7.99
2023-03-06T09:54:45.523Z,8.08
2023-03-06T09:55:45.570Z,8.17
2023-03-06T09:56:45.550Z,8.21
2023-03-06T09:57:45.582Z,8.23
2023-03-06T09:58:45.530Z,8.24
2023-03-06T09:59:45.543Z,8.30
2023-03-06T10:00:45.541Z,8.31
2023-03-06T10:02:45.739Z,8.28
2023-03-06T10:03:45.550Z,8.15
2023-03-06T10:04:45.609Z,8.07
2023-03-06T10:05:45.573Z,7.99
2023-03-06T10:07:46.300Z,8.02
2023-03-06T10:08:45.591Z,8.03
2023-03-06T10:09:45.600Z,7.98
2023-03-06T10:10:45.625Z,7.95
2023-03-06T10:11:45.573Z,7.89
2023-03-06T10:12:45.605Z,7.88
2023-03-06T10:13:45.608Z,7.81
2023-03-06T10:14:48.744Z,7.82
2023-03-06T10:15:45.669Z,7.87
2023-03-06T10:16:45.613Z,7.95
2023-03-06T10:17:45.581Z,8.04
2023-03-06T10:18:45.584Z,8.13
2023-03-06T10:19:45.582Z,8.16
2023-03-06T10:20:46.350Z,8.17
2023-03-06T10:21:45.638Z,8.15
2023-03-06T10:22:55.385Z,8.22
2023-03-06T10:23:45.634Z,8.28
2023-03-06T10:24:45.638Z,8.34
2023-03-06T10:25:45.691Z,8.38
2023-03-06T10:26:45.773Z,8.44
2023-03-06T10:27:45.649Z,8.47
2023-03-06T10:28:45.612Z,8.56
2023-03-06T10:29:59.892Z,8.62
2023-03-06T10:30:45.757Z,8.66
2023-03-06T10:31:45.674Z,8.72
2023-03-06T10:32:49.099Z,8.78
2023-03-06T10:33:45.663Z,8.85
2023-03-06T10:34:45.652Z,8.88
2023-03-06T10:35:45.798Z,8.94
2023-03-06T10:36:45.673Z,9.03
2023-03-06T10:37:45.995Z,9.09
2023-03-06T10:38:45.679Z,9.11
2023-03-06T10:39:45.674Z,9.17
2023-03-06T10:40:45.671Z,9.22
2023-03-06T10:41:46.268Z,9.19
2023-03-06T10:42:45.673Z,9.16
2023-03-06T10:43:45.745Z,9.12
2023-03-06T10:44:45.690Z,9.08
2023-03-06T10:45:49.280Z,9.04
2023-03-06T10:46:45.714Z,9.01
2023-03-06T10:47:45.655Z,9.02
2023-03-06T10:48:45.698Z,8.97
2023-03-06T10:49:45.671Z,8.95
2023-03-06T10:51:45.698Z,8.97
2023-03-06T10:52:45.701Z,8.90
2023-03-06T10:53:45.715Z,8.91
2023-03-06T10:54:45.703Z,8.88
2023-03-06T10:55:45.703Z,8.90
2023-03-06T10:56:45.748Z,8.87
2023-03-06T10:57:46.583Z,8.80
2023-03-06T10:59:45.719Z,8.78
2023-03-06T11:00:45.687Z,8.73
2023-03-06T11:01:45.879Z,8.71
2023-03-06T11:02:45.738Z,8.77
2023-03-06T11:03:45.676Z,8.72
2023-03-06T11:04:45.770Z,8.74
2023-03-06T11:05:45.712Z,8.77
2023-03-06T11:06:45.796Z,8.74
2023-03-06T11:07:45.751Z,8.75
2023-03-06T11:08:45.703Z,8.74
2023-03-06T11:09:45.703Z,8.75
2023-03-06T11:10:45.717Z,8.69
2023-03-06T11:11:45.752Z,8.65
2023-03-06T11:12:45.751Z,8.67
2023-03-06T11:13:45.797Z,8.75
2023-03-06T11:14:45.791Z,8.79
2023-03-06T11:15:45.815Z,8.80
2023-03-06T11:16:45.770Z,8.84
2023-03-06T11:17:45.733Z,8.88
2023-03-06T11:18:47.136Z,8.92
2023-03-06T11:19:45.765Z,8.98
2023-03-06T11:20:52.159Z,9.07
2023-03-06T11:21:45.726Z,9.09
2023-03-06T11:22:48.116Z,9.10
2023-03-06T11:23:45.764Z,9.11
2023-03-06T11:24:45.803Z,9.05
2023-03-06T11:25:45.740Z,8.89
2023-03-06T11:26:45.744Z,8.74
2023-03-06T11:27:45.773Z,8.57
2023-03-06T11:28:45.777Z,8.45
2023-03-06T11:29:45.786Z,8.48
2023-03-06T11:30:45.762Z,8.51
2023-03-06T11:31:45.878Z,8.60
2023-03-06T11:32:45.760Z,8.72
2023-03-06T11:33:45.783Z,8.81
2023-03-06T11:34:49.168Z,8.90
2023-03-06T11:35:46.067Z,8.96
2023-03-06T11:36:45.778Z,8.91
2023-03-06T11:37:45.821Z,8.87
2023-03-06T11:38:45.784Z,8.92
2023-03-06T11:39:45.772Z,8.97
2023-03-06T11:40:45.768Z,9.04
2023-03-06T11:41:46.609Z,9.07
2023-03-06T11:42:45.813Z,9.11
2023-03-06T11:43:45.821Z,9.14
2023-03-06T11:44:45.823Z,9.17
2023-03-06T11:45:45.803Z,9.19
2023-03-06T11:46:45.817Z,9.23
2023-03-06T11:47:45.901Z,9.29
2023-03-06T11:48:45.782Z,9.30
2023-03-06T11:49:45.835Z,9.31
2023-03-06T11:51:45.840Z,9.29
2023-03-06T11:52:45.837Z,9.28
2023-03-06T11:53:46.064Z,9.29
2023-03-06T11:54:45.850Z,9.36
2023-03-06T11:55:45.872Z,9.42
2023-03-06T11:56:45.863Z,9.51
2023-03-06T11:57:45.832Z,9.55
2023-03-06T11:58:45.860Z,9.61
2023-03-06T11:59:45.848Z,9.66
2023-03-06T12:00:45.901Z,9.70
2023-03-06T12:01:45.944Z,9.66
2023-03-06T12:02:45.864Z,9.62
2023-03-06T12:03:45.871Z,9.61
2023-03-06T12:04:45.882Z,9.62
2023-03-06T12:05:45.960Z,9.66
2023-03-06T12:06:45.848Z,9.69
2023-03-06T12:07:45.841Z,9.74
2023-03-06T12:09:45.882Z,9.75
2023-03-06T12:10:51.461Z,9.78
2023-03-06T12:11:47.239Z,9.80
2023-03-06T12:12:45.843Z,9.84
2023-03-06T12:13:45.865Z,9.89
2023-03-06T12:14:45.900Z,9.93
2023-03-06T12:15:45.897Z,9.94
2023-03-06T12:17:45.922Z,9.97
2023-03-06T12:18:45.965Z,10.01
2023-03-06T12:19:45.916Z,10.07
2023-03-06T12:20:45.873Z,10.16
2023-03-06T12:21:45.862Z,10.24
2023-03-06T12:22:57.412Z,10.32
2023-03-06T12:24:45.870Z,10.34
2023-03-06T12:26:45.919Z,10.35
2023-03-06T12:28:46.545Z,10.37
2023-03-06T12:29:45.929Z,10.40
2023-03-06T12:30:45.936Z,10.41
2023-03-06T12:31:45.983Z,10.42
2023-03-06T12:32:45.965Z,10.43
2023-03-06T12:33:45.914Z,10.44
2023-03-06T12:34:46.009Z,10.46
2023-03-06T12:35:45.991Z,10.47
2023-03-06T12:36:45.944Z,10.44
2023-03-06T12:37:45.942Z,10.35
2023-03-06T12:38:45.972Z,10.32
2023-03-06T12:39:45.913Z,10.29
2023-03-06T12:40:45.947Z,10.26
2023-03-06T12:41:45.955Z,10.25
2023-03-06T12:42:45.980Z,10.23
2023-03-06T12:43:45.983Z,10.21
2023-03-06T12:44:45.969Z,10.20
2023-03-06T12:45:46.103Z,10.15
2023-03-06T12:46:45.969Z,10.13
2023-03-06T12:47:45.975Z,10.05
2023-03-06T12:48:47.352Z,10.04
2023-03-06T12:49:47.494Z,10.03
2023-03-06T12:50:46.121Z,10.02
2023-03-06T12:51:46.036Z,10.04
2023-03-06T12:52:45.996Z,10.00
2023-03-06T12:53:45.976Z,9.95
2023-03-06T12:54:45.967Z,9.91
2023-03-06T12:55:45.973Z,9.88
2023-03-06T12:56:46.104Z,9.89
2023-03-06T12:58:45.956Z,9.82
2023-03-06T12:59:45.968Z,9.73
2023-03-06T13:00:47.865Z,9.70
2023-03-06T13:01:46.079Z,9.66
2023-03-06T13:02:46.223Z,9.63
2023-03-06T13:03:46.047Z,9.61
2023-03-06T13:04:45.985Z,9.59
2023-03-06T13:06:50.910Z,9.62
2023-03-06T13:07:46.040Z,9.60
2023-03-06T13:09:46.084Z,9.62
2023-03-06T13:10:46.044Z,9.64
2023-03-06T13:11:46.037Z,9.62
2023-03-06T13:12:46.009Z,9.64
2023-03-06T13:13:46.004Z,9.67
2023-03-06T13:14:54.239Z,9.70
2023-03-06T13:15:46.484Z,9.74
2023-03-06T13:16:46.110Z,9.80
2023-03-06T13:17:46.111Z,9.86
2023-03-06T13:18:46.019Z,9.90
2023-03-06T13:19:46.058Z,9.89
2023-03-06T13:20:46.046Z,9.90
2023-03-06T13:21:46.191Z,9.95
2023-03-06T13:22:46.066Z,10.02
2023-03-06T13:23:46.031Z,10.05
2023-03-06T13:24:46.052Z,10.11
2023-03-06T13:25:47.609Z,10.10
2023-03-06T13:26:46.057Z,10.09
2023-03-06T13:27:46.356Z,10.07
2023-03-06T13:28:46.065Z,10.08
2023-03-06T13:29:46.050Z,9.95
2023-03-06T13:30:46.121Z,9.86
2023-03-06T13:31:46.136Z,9.81
2023-03-06T13:32:46.068Z,9.80
2023-03-06T13:33:46.074Z,9.82
2023-03-06T13:35:46.089Z,9.78
2023-03-06T13:36:46.133Z,9.74
2023-03-06T13:37:46.097Z,9.66
2023-03-06T13:38:46.096Z,9.59
2023-03-06T13:39:46.439Z,9.55
2023-03-06T13:40:46.105Z,9.51
2023-03-06T13:41:46.165Z,9.47
2023-03-06T13:42:46.110Z,9.49
2023-03-06T13:43:46.123Z,9.56
2023-03-06T13:44:46.134Z,9.63
2023-03-06T13:45:46.141Z,9.64
2023-03-06T13:46:46.138Z,9.67
2023-03-06T13:48:09.662Z,9.74
2023-03-06T13:48:46.334Z,9.72
2023-03-06T13:49:46.126Z,9.68
2023-03-06T13:50:46.121Z,9.70
2023-03-06T13:51:46.178Z,9.74
2023-03-06T13:52:46.144Z,9.81
2023-03-06T13:53:46.191Z,9.83
2023-03-06T13:56:46.142Z,9.77
2023-03-06T13:57:46.388Z,9.70
2023-03-06T13:59:46.175Z,9.75
2023-03-06T14:00:46.147Z,9.81
2023-03-06T14:01:46.162Z,9.89
2023-03-06T14:02:49.170Z,9.95
2023-03-06T14:03:46.146Z,9.92
2023-03-06T14:04:46.158Z,9.88
2023-03-06T14:05:46.154Z,9.90
2023-03-06T14:06:46.171Z,9.91
2023-03-06T14:07:46.215Z,9.95
2023-03-06T14:08:46.220Z,9.93
2023-03-06T14:09:46.134Z,9.70
2023-03-06T14:10:46.194Z,9.58
2023-03-06T14:12:46.217Z,9.62
2023-03-06T14:13:47.687Z,9.72
2023-03-06T14:14:46.518Z,9.67
2023-03-06T14:15:46.190Z,9.68
2023-03-06T14:16:50.283Z,9.80
2023-03-06T14:17:46.212Z,9.89
2023-03-06T14:18:46.210Z,9.95
2023-03-06T14:19:46.156Z,10.02
2023-03-06T14:20:46.323Z,10.07
2023-03-06T14:21:46.209Z,10.09
2023-03-06T14:22:46.244Z,10.11
2023-03-06T14:23:46.159Z,10.07
2023-03-06T14:24:46.178Z,10.02
2023-03-06T14:25:46.238Z,10.01
2023-03-06T14:26:46.210Z,10.04
2023-03-06T14:27:46.257Z,10.05
2023-03-06T14:28:46.210Z,10.02
2023-03-06T14:29:46.227Z,9.97
2023-03-06T14:30:46.186Z,9.99
2023-03-06T14:31:46.420Z,9.95
2023-03-06T14:32:46.219Z,9.96
2023-03-06T14:33:46.226Z,9.92
2023-03-06T14:34:46.260Z,9.90
2023-03-06T14:35:46.282Z,9.91
2023-03-06T14:37:46.215Z,9.87
2023-03-06T14:38:46.218Z,9.84
2023-03-06T14:40:46.299Z,9.87
2023-03-06T14:41:46.235Z,9.86
2023-03-06T14:42:46.244Z,9.83
2023-03-06T14:43:46.578Z,9.81
2023-03-06T14:44:46.227Z,9.82
2023-03-06T14:45:46.302Z,9.83
2023-03-06T14:46:46.284Z,9.86
2023-03-06T14:47:46.237Z,9.82
2023-03-06T14:48:46.222Z,9.78
2023-03-06T14:49:46.343Z,9.71
2023-03-06T14:50:46.239Z,9.67
2023-03-06T14:51:46.289Z,9.69
2023-03-06T14:53:46.295Z,9.70
2023-03-06T14:54:46.264Z,9.71
2023-03-06T14:56:46.372Z,9.72
2023-03-06T14:57:46.277Z,9.71
2023-03-06T14:58:46.300Z,9.70
2023-03-06T14:59:46.277Z,9.68
2023-03-06T15:00:46.318Z,9.64
2023-03-06T15:01:46.335Z,9.61
2023-03-06T15:02:46.440Z,9.60